Time;durP1;ratioP1;P1;durP2;ratioP2;P2;SDS_P1;SDS_P2;PMS_P1;PMS_P2;Temp;Humidity;BMP_temperature;BMP_pressure;BME280_temperature;BME280_humidity;BME280_pressure;Samples;Min_cycle;Max_cycle;Signal;HPM_P1;HPM_P2
2021/03/06 00:00:18;;;;;;;42.77;23.57;;;-3.80;86.80;;;;;;4848891;28;20684;-82
2021/03/06 00:02:41;;;;;;;35.83;19.97;;;-3.90;90.50;;;;;;4849404;28;20671;-82
2021/03/06 00:05:03;;;;;;;36.53;19.93;;;-3.90;92.50;;;;;;4848523;28;20723;-75
2021/03/06 00:07:25;;;;;;;38.73;19.70;;;-3.80;94.40;;;;;;4839117;28;20654;-79
2021/03/06 00:09:47;;;;;;;35.57;19.67;;;-3.70;96.20;;;;;;4847837;28;20677;-76
2021/03/06 00:12:10;;;;;;;37.60;20.37;;;-3.60;98.00;;;;;;4854809;28;20635;-79
2021/03/06 00:14:32;;;;;;;35.03;19.03;;;-3.70;99.80;;;;;;4840242;28;20613;-77
2021/03/06 00:16:55;;;;;;;35.07;20.00;;;-3.70;99.90;;;;;;4843265;28;20611;-79
2021/03/06 00:19:24;;;;;;;36.03;19.97;;;-3.70;99.90;;;;;;4861121;28;20611;-81
2021/03/06 00:21:46;;;;;;;34.97;19.40;;;-3.60;99.90;;;;;;4861036;28;20667;-81
2021/03/06 00:24:12;;;;;;;31.93;19.17;;;-3.60;99.90;;;;;;4861329;28;21231;-81
2021/03/06 00:26:38;;;;;;;33.10;19.30;;;-3.60;99.90;;;;;;4859511;28;21159;-82
2021/03/06 00:29:00;;;;;;;30.30;17.80;;;-3.60;99.90;;;;;;4863125;28;20717;-82
2021/03/06 00:31:23;;;;;;;28.83;17.67;;;-3.60;99.90;;;;;;4852581;28;20615;-80
2021/03/06 00:33:52;;;;;;;30.97;18.90;;;-3.60;99.90;;;;;;4851965;28;20655;-81
2021/03/06 00:36:18;;;;;;;33.50;18.23;;;-3.60;99.90;;;;;;4845706;28;20708;-78
2021/03/06 00:38:42;;;;;;;30.27;17.87;;;-3.50;99.90;;;;;;4862341;28;20623;-82
2021/03/06 00:41:07;;;;;;;29.97;17.87;;;-3.50;99.90;;;;;;4861070;28;21044;-79
2021/03/06 00:43:34;;;;;;;29.60;17.03;;;-3.50;99.90;;;;;;4843087;28;20620;-80
2021/03/06 00:46:02;;;;;;;30.73;17.47;;;-3.50;99.90;;;;;;4844112;28;20612;-80
2021/03/06 00:48:26;;;;;;;28.50;17.27;;;-3.50;99.90;;;;;;4843435;28;20603;-82
2021/03/06 00:50:56;;;;;;;28.93;17.87;;;-3.50;99.90;;;;;;4862386;28;20612;-81
2021/03/06 00:53:23;;;;;;;30.63;16.20;;;-3.40;99.90;;;;;;4860672;28;20611;-80
2021/03/06 00:55:46;;;;;;;28.23;16.77;;;-3.40;99.90;;;;;;4859662;28;20623;-82
2021/03/06 00:58:21;;;;;;;31.77;17.43;;;-3.40;99.90;;;;;;4861414;28;20636;-80
2021/03/06 01:00:48;;;;;;;27.77;17.93;;;-3.40;99.90;;;;;;4857298;28;20623;-80
2021/03/06 01:03:10;;;;;;;32.07;20.23;;;-3.30;99.90;;;;;;4856644;28;20674;-74
2021/03/06 01:05:32;;;;;;;31.23;18.73;;;-3.40;99.90;;;;;;4857344;28;20607;-74
2021/03/06 01:07:55;;;;;;;33.17;18.73;;;-3.40;99.90;;;;;;4846017;28;20628;-81
2021/03/06 01:10:21;;;;;;;28.63;17.50;;;-3.40;99.90;;;;;;4847742;28;20662;-75
2021/03/06 01:12:43;;;;;;;29.37;17.27;;;-3.50;99.90;;;;;;4855777;28;20670;-81
2021/03/06 01:15:06;;;;;;;28.63;16.40;;;-3.40;99.90;;;;;;4852152;28;20748;-82
2021/03/06 01:17:28;;;;;;;28.10;15.90;;;-3.50;99.90;;;;;;4838926;28;20663;-82
2021/03/06 01:19:51;;;;;;;28.40;15.93;;;-3.40;99.90;;;;;;4844999;28;20665;-79
2021/03/06 01:22:13;;;;;;;26.17;15.83;;;-3.40;99.90;;;;;;4856944;28;20651;-80
2021/03/06 01:24:37;;;;;;;26.33;15.63;;;-3.50;99.90;;;;;;4853544;28;21105;-80
2021/03/06 01:26:59;;;;;;;25.60;15.27;;;-3.50;99.90;;;;;;4837879;28;20604;-82
2021/03/06 01:29:21;;;;;;;27.10;15.50;;;-3.50;99.90;;;;;;4854470;28;20669;-81
2021/03/06 01:31:43;;;;;;;25.57;16.13;;;-3.50;99.90;;;;;;4856734;28;20741;-82
2021/03/06 01:34:05;;;;;;;23.83;14.20;;;-3.50;99.90;;;;;;4842816;28;20640;-79
2021/03/06 01:36:27;;;;;;;25.67;15.00;;;-3.50;99.90;;;;;;4839808;28;21027;-79
2021/03/06 01:38:49;;;;;;;24.07;14.80;;;-3.50;99.90;;;;;;4844787;28;20655;-81
2021/03/06 01:41:12;;;;;;;25.20;16.10;;;-3.60;99.90;;;;;;4849092;28;20713;-80
2021/03/06 01:43:34;;;;;;;26.13;16.10;;;-3.60;99.90;;;;;;4838926;28;20658;-81
2021/03/06 01:45:56;;;;;;;25.27;15.17;;;-3.60;99.90;;;;;;4854708;28;20631;-78
2021/03/06 01:48:18;;;;;;;25.00;15.80;;;-3.60;99.90;;;;;;4840197;28;20671;-80
2021/03/06 01:50:42;;;;;;;25.30;15.97;;;-3.40;99.90;;;;;;4838721;28;20604;-80
2021/03/06 01:53:11;;;;;;;26.53;15.93;;;-3.60;99.90;;;;;;4837412;28;20600;-79
2021/03/06 01:55:37;;;;;;;23.77;15.30;;;-3.60;99.90;;;;;;4841867;28;21271;-80
2021/03/06 01:58:01;;;;;;;25.73;15.93;;;-3.60;99.90;;;;;;4852614;28;20653;-83
2021/03/06 02:00:24;;;;;;;26.00;14.43;;;-3.70;99.90;;;;;;4840864;28;20628;-75
2021/03/06 02:02:48;;;;;;;22.67;14.70;;;-3.50;99.90;;;;;;4854820;28;20721;-80
2021/03/06 02:05:11;;;;;;;24.70;14.70;;;-3.00;99.90;;;;;;4855053;28;20608;-82
2021/03/06 02:07:33;;;;;;;26.07;15.60;;;-3.70;99.90;;;;;;4851417;28;20616;-82
2021/03/06 02:09:55;;;;;;;22.77;15.10;;;-3.00;99.90;;;;;;4837924;28;20604;-78
2021/03/06 02:12:24;;;;;;;22.33;14.70;;;-3.60;99.90;;;;;;4841077;28;20659;-75
2021/03/06 02:15:10;;;;;;;25.77;15.60;;;-3.80;99.90;;;;;;4854502;28;20627;-81
2021/03/06 02:17:43;;;;;;;23.17;14.27;;;-3.80;99.90;;;;;;4837611;28;20592;-77
2021/03/06 02:20:38;;;;;;;25.13;14.90;;;-3.80;99.90;;;;;;4841978;28;20589;-81
2021/03/06 02:23:26;;;;;;;24.00;14.60;;;-3.80;99.90;;;;;;4838867;28;20628;-81
2021/03/06 02:26:09;;;;;;;22.87;14.87;;;-3.80;99.90;;;;;;4818014;28;20635;-82
2021/03/06 02:28:41;;;;;;;26.00;14.53;;;-3.90;99.90;;;;;;4841688;28;20642;-81
2021/03/06 02:31:05;;;;;;;23.97;14.97;;;-3.50;99.90;;;;;;4848320;28;20710;-77
2021/03/06 02:33:30;;;;;;;24.37;14.57;;;-3.30;99.90;;;;;;4856711;28;20659;-80
2021/03/06 02:35:56;;;;;;;22.57;15.30;;;-3.90;99.90;;;;;;4846092;28;20617;-81
2021/03/06 02:38:26;;;;;;;24.40;15.30;;;-4.00;99.90;;;;;;4836968;28;21045;-75
2021/03/06 02:40:49;;;;;;;24.17;15.20;;;-4.00;99.90;;;;;;4846905;28;21175;-82
2021/03/06 02:43:11;;;;;;;25.23;16.20;;;-4.10;99.90;;;;;;4841143;28;21197;-83
2021/03/06 02:45:35;;;;;;;28.10;15.63;;;-4.10;99.90;;;;;;4842766;28;20620;-81
2021/03/06 02:47:58;;;;;;;22.83;15.03;;;-4.10;99.90;;;;;;4855172;28;20611;-80
2021/03/06 02:50:20;;;;;;;24.10;14.63;;;-4.10;99.90;;;;;;4851041;28;20612;-83
2021/03/06 02:52:42;;;;;;;28.43;16.10;;;-4.10;99.90;;;;;;4840851;28;21217;-81
2021/03/06 02:55:06;;;;;;;24.00;15.53;;;-4.10;99.90;;;;;;4852966;28;20626;-83
2021/03/06 02:57:41;;;;;;;22.60;15.87;;;-4.20;99.90;;;;;;4849768;28;21278;-80
2021/03/06 03:00:24;;;;;;;23.57;16.13;;;-4.20;99.90;;;;;;4853503;28;20638;-81
2021/03/06 03:02:58;;;;;;;21.50;14.70;;;-4.20;99.90;;;;;;4838913;28;20695;-79
2021/03/06 03:05:29;;;;;;;24.50;15.30;;;-4.20;99.90;;;;;;4837403;28;21006;-83
2021/03/06 03:08:02;;;;;;;24.43;16.17;;;-4.20;99.90;;;;;;4848740;28;20635;-78
2021/03/06 03:10:25;;;;;;;27.57;15.63;;;-4.20;99.90;;;;;;4838746;28;20663;-81
2021/03/06 03:12:51;;;;;;;25.30;15.73;;;-4.20;99.90;;;;;;4848778;28;20700;-75
2021/03/06 03:15:18;;;;;;;27.07;16.27;;;-4.20;99.90;;;;;;4839462;28;20645;-78
2021/03/06 03:17:42;;;;;;;23.57;15.10;;;-3.80;99.90;;;;;;4844231;28;20605;-82
2021/03/06 03:20:11;;;;;;;26.03;15.87;;;-4.20;99.90;;;;;;4840739;28;20607;-81
2021/03/06 03:22:38;;;;;;;24.57;16.17;;;-4.30;99.90;;;;;;4846123;28;20642;-80
2021/03/06 03:25:02;;;;;;;28.13;16.77;;;-4.20;99.90;;;;;;4854680;28;20604;-79
2021/03/06 03:27:26;;;;;;;25.93;16.83;;;-4.30;99.90;;;;;;4843888;28;20669;-83
2021/03/06 03:29:49;;;;;;;29.77;17.43;;;-2.70;99.90;;;;;;4858994;28;20673;-75
2021/03/06 03:32:13;;;;;;;25.00;16.77;;;-4.30;99.90;;;;;;4839988;28;20678;-78
2021/03/06 03:34:36;;;;;;;22.97;15.17;;;-4.30;99.90;;;;;;4842674;28;20681;-82
2021/03/06 03:36:59;;;;;;;25.20;15.57;;;-4.20;99.90;;;;;;4858402;28;20607;-80
2021/03/06 03:39:22;;;;;;;27.27;15.60;;;-4.00;99.90;;;;;;4841175;28;20612;-80
2021/03/06 03:41:45;;;;;;;25.87;15.13;;;-4.20;99.90;;;;;;4840716;28;21009;-82
2021/03/06 03:44:08;;;;;;;20.83;14.30;;;-4.30;99.90;;;;;;4840451;28;21017;-79
2021/03/06 03:46:31;;;;;;;20.73;14.10;;;-4.20;99.90;;;;;;4840216;28;20687;-82
2021/03/06 03:48:55;;;;;;;21.57;14.47;;;-4.30;99.90;;;;;;4840767;28;20650;-83
2021/03/06 03:51:17;;;;;;;22.77;12.90;;;-3.40;99.90;;;;;;4849100;28;20681;-79
2021/03/06 03:53:40;;;;;;;20.53;13.50;;;-4.20;99.90;;;;;;4857667;28;20697;-79
2021/03/06 03:56:03;;;;;;;18.33;12.67;;;-4.20;99.90;;;;;;4854637;28;20608;-76
2021/03/06 03:58:26;;;;;;;20.53;13.43;;;-4.20;99.90;;;;;;4842868;28;20663;-83
2021/03/06 04:00:54;;;;;;;21.80;15.03;;;-4.20;99.90;;;;;;4843715;28;20739;-75
2021/03/06 04:03:17;;;;;;;22.23;14.50;;;-4.20;99.90;;;;;;4841363;28;20664;-83
2021/03/06 04:05:39;;;;;;;25.10;15.00;;;-4.00;99.90;;;;;;4846475;28;20601;-82
2021/03/06 04:08:01;;;;;;;19.57;13.57;;;-4.20;99.90;;;;;;4848783;28;20673;-82
2021/03/06 04:10:25;;;;;;;19.83;13.47;;;-4.20;99.90;;;;;;4848012;28;20624;-83
2021/03/06 04:12:49;;;;;;;21.60;14.07;;;-4.10;99.90;;;;;;4847689;28;20693;-76
2021/03/06 04:15:13;;;;;;;22.23;14.10;;;-4.20;99.90;;;;;;4858003;28;20599;-82
2021/03/06 04:17:35;;;;;;;23.00;15.40;;;-4.20;99.90;;;;;;4857577;28;20669;-83
2021/03/06 04:19:57;;;;;;;24.40;15.43;;;-4.20;99.90;;;;;;4857977;28;20623;-83
2021/03/06 04:22:20;;;;;;;27.00;16.00;;;-4.20;99.90;;;;;;4859285;28;20623;-81
2021/03/06 04:24:42;;;;;;;25.97;15.93;;;-4.30;99.90;;;;;;4847431;28;20624;-81
2021/03/06 04:27:04;;;;;;;24.63;15.70;;;-4.10;99.90;;;;;;4854828;28;20607;-83
2021/03/06 04:29:27;;;;;;;26.27;16.17;;;-4.20;99.90;;;;;;4840187;28;20593;-83
2021/03/06 04:31:49;;;;;;;26.97;16.20;;;-4.20;99.90;;;;;;4840371;28;20658;-83
2021/03/06 04:34:12;;;;;;;24.23;15.10;;;-4.20;99.90;;;;;;4839194;28;20644;-83
2021/03/06 04:36:34;;;;;;;24.60;15.13;;;-4.20;99.90;;;;;;4849497;28;20694;-84
2021/03/06 04:38:56;;;;;;;20.80;14.00;;;-4.30;99.90;;;;;;4859146;28;20650;-84
2021/03/06 04:41:18;;;;;;;22.00;14.00;;;-4.20;99.90;;;;;;4858013;28;20682;-79
2021/03/06 04:43:40;;;;;;;20.83;13.83;;;-4.30;99.90;;;;;;4858776;28;20644;-83
2021/03/06 04:46:03;;;;;;;20.33;14.17;;;-4.30;99.90;;;;;;4857581;28;21148;-81
2021/03/06 04:48:25;;;;;;;22.27;14.33;;;-4.20;99.90;;;;;;4844392;28;21014;-84
2021/03/06 04:50:48;;;;;;;21.73;14.80;;;-4.40;99.90;;;;;;4842069;28;20616;-83
2021/03/06 04:53:10;;;;;;;24.33;15.23;;;-4.40;99.90;;;;;;4858367;28;20600;-83
2021/03/06 04:55:32;;;;;;;26.20;16.83;;;-4.40;99.90;;;;;;4857599;28;20615;-84
2021/03/06 04:57:54;;;;;;;25.07;17.60;;;-4.40;99.90;;;;;;4841428;28;20655;-84
2021/03/06 05:00:17;;;;;;;22.17;14.97;;;-4.40;99.90;;;;;;4854843;28;21184;-81
2021/03/06 05:02:40;;;;;;;19.67;13.23;;;-4.50;99.90;;;;;;4845777;28;20660;-83
2021/03/06 05:05:04;;;;;;;21.37;13.23;;;-4.50;99.90;;;;;;4852546;28;21191;-80
2021/03/06 05:07:27;;;;;;;20.80;14.37;;;-4.50;99.90;;;;;;4845633;28;20612;-84
2021/03/06 05:09:49;;;;;;;25.07;15.03;;;-4.60;99.90;;;;;;4852426;28;20642;-84
2021/03/06 05:12:11;;;;;;;25.93;16.57;;;-4.60;99.90;;;;;;4849444;28;21148;-84
2021/03/06 05:14:34;;;;;;;24.90;14.83;;;-4.60;99.90;;;;;;4842165;28;21219;-82
2021/03/06 05:16:56;;;;;;;23.57;14.80;;;-4.60;99.90;;;;;;4839877;28;20949;-83
2021/03/06 05:19:19;;;;;;;24.20;15.23;;;-4.60;99.90;;;;;;4856291;28;20677;-83
2021/03/06 05:21:41;;;;;;;22.33;14.63;;;-4.60;99.90;;;;;;4838843;28;21169;-82
2021/03/06 05:24:04;;;;;;;22.93;14.10;;;-4.60;99.90;;;;;;4844871;28;20655;-81
2021/03/06 05:26:26;;;;;;;22.67;14.97;;;-4.60;99.90;;;;;;4857650;28;20626;-83
2021/03/06 05:28:48;;;;;;;22.87;15.50;;;-4.60;99.90;;;;;;4856700;28;20646;-82
2021/03/06 05:31:10;;;;;;;22.00;15.83;;;-3.40;99.90;;;;;;4841830;28;21227;-82
2021/03/06 05:33:32;;;;;;;25.33;17.97;;;-4.50;99.90;;;;;;4847332;28;20684;-77
2021/03/06 05:35:55;;;;;;;32.47;19.50;;;-4.50;99.90;;;;;;4854360;28;20584;-84
2021/03/06 05:38:17;;;;;;;27.00;16.40;;;-4.50;99.90;;;;;;4857707;28;20604;-80
2021/03/06 05:40:41;;;;;;;24.30;16.07;;;-4.40;99.90;;;;;;4849132;28;21118;-81
2021/03/06 05:43:03;;;;;;;22.13;14.97;;;-4.30;99.90;;;;;;4857402;28;20705;-79
2021/03/06 05:45:25;;;;;;;21.63;15.43;;;-4.30;99.90;;;;;;4852300;28;20613;-84
2021/03/06 05:47:48;;;;;;;26.67;16.67;;;-4.30;99.90;;;;;;4839250;28;20663;-78
2021/03/06 05:50:11;;;;;;;27.40;15.07;;;-4.20;99.90;;;;;;4855318;28;20611;-82
2021/03/06 05:52:35;;;;;;;22.77;15.50;;;-4.10;99.90;;;;;;4848860;28;20817;-77
2021/03/06 05:54:59;;;;;;;24.10;15.77;;;-3.80;99.90;;;;;;4841603;28;20662;-77
2021/03/06 05:57:22;;;;;;;26.37;16.73;;;-3.90;99.90;;;;;;4838733;28;20654;-83
2021/03/06 05:59:45;;;;;;;25.70;16.33;;;-3.90;99.90;;;;;;4849815;28;21230;-83
2021/03/06 06:02:08;;;;;;;27.67;16.83;;;-3.80;99.90;;;;;;4849602;28;20623;-83
2021/03/06 06:04:31;;;;;;;26.77;17.90;;;-3.80;99.90;;;;;;4847253;28;20715;-81
2021/03/06 06:06:54;;;;;;;29.17;18.53;;;-3.60;99.90;;;;;;4851227;28;20665;-84
2021/03/06 06:09:17;;;;;;;30.97;19.87;;;-3.50;99.90;;;;;;4842599;28;20670;-82
2021/03/06 06:11:39;;;;;;;28.50;19.53;;;-3.40;99.90;;;;;;4849400;28;20611;-84
2021/03/06 06:14:03;;;;;;;31.63;21.40;;;-2.60;99.90;;;;;;4849304;28;20625;-84
2021/03/06 06:16:28;;;;;;;32.63;22.10;;;-3.00;99.90;;;;;;4853742;28;20645;-83
2021/03/06 06:18:51;;;;;;;35.27;22.93;;;-2.80;99.90;;;;;;4841708;28;20671;-86
2021/03/06 06:21:35;;;;;;;33.33;21.70;;;-2.70;99.90;;;;;;4837279;28;20620;-85
2021/03/06 06:24:03;;;;;;;37.30;24.23;;;-2.50;99.90;;;;;;4854489;28;20732;-83
2021/03/06 06:26:28;;;;;;;45.10;26.83;;;-1.20;99.90;;;;;;4840727;28;20659;-82
2021/03/06 06:28:50;;;;;;;48.60;29.53;;;-2.10;99.90;;;;;;4853106;28;20673;-83
2021/03/06 06:31:13;;;;;;;43.27;27.27;;;-1.80;99.90;;;;;;4849605;28;21193;-80
2021/03/06 06:33:35;;;;;;;40.87;27.67;;;-1.70;99.90;;;;;;4855429;28;20635;-84
2021/03/06 06:35:57;;;;;;;42.43;26.07;;;-1.50;99.90;;;;;;4836455;28;20596;-80
2021/03/06 06:38:19;;;;;;;45.87;26.80;;;-1.30;99.90;;;;;;4843725;28;20615;-85
2021/03/06 06:40:41;;;;;;;34.50;23.67;;;-1.10;99.90;;;;;;4855529;28;20657;-82
2021/03/06 06:43:22;;;;;;;37.20;22.97;;;-0.80;96.10;;;;;;4850870;28;20636;-82
2021/03/06 06:45:45;;;;;;;29.90;18.53;;;-0.60;85.00;;;;;;4840041;28;20632;-84
2021/03/06 06:48:10;;;;;;;26.43;17.90;;;-0.30;49.00;;;;;;4839808;28;21197;-83
2021/03/06 06:50:33;;;;;;;25.33;16.53;;;-0.10;31.40;;;;;;4843528;28;20662;-80
2021/03/06 06:52:55;;;;;;;21.93;15.47;;;0.20;22.20;;;;;;4838330;28;20596;-81
2021/03/06 06:55:17;;;;;;;20.50;13.50;;;0.40;3.90;;;;;;4842719;28;20195;-74
2021/03/06 06:57:48;;;;;;;21.00;12.90;;;0.60;1.00;;;;;;4840471;28;20631;-83
2021/03/06 07:00:12;;;;;;;15.73;11.57;;;0.50;1.00;;;;;;4849806;28;20615;-81
2021/03/06 07:02:34;;;;;;;16.17;11.37;;;0.40;1.00;;;;;;4842036;28;20648;-83
2021/03/06 07:04:58;;;;;;;17.53;12.13;;;0.30;1.00;;;;;;4841654;28;20710;-78
2021/03/06 07:07:21;;;;;;;19.43;12.10;;;0.30;1.00;;;;;;4841732;28;21281;-80
2021/03/06 07:10:09;;;;;;;17.40;12.23;;;1.00;99.90;;;;;;4846954;28;20619;-81
2021/03/06 07:12:33;;;;;;;15.83;10.83;;;0.20;1.00;;;;;;4853722;28;20592;-88
2021/03/06 07:14:55;;;;;;;14.37;10.63;;;0.20;7.90;;;;;;4847226;28;20611;-82
2021/03/06 07:17:18;;;;;;;17.13;11.63;;;0.20;1.00;;;;;;4860165;28;20596;-75
2021/03/06 07:19:42;;;;;;;17.53;10.60;;;0.30;99.90;;;;;;4845449;28;20990;-86
2021/03/06 07:22:04;;;;;;;20.17;11.83;;;0.50;1.00;;;;;;4842155;28;20664;-84
2021/03/06 07:24:28;;;;;;;15.83;10.23;;;0.40;1.00;;;;;;4842100;28;21378;-82
2021/03/06 07:26:52;;;;;;;14.93;10.47;;;0.40;1.00;;;;;;4846431;28;21004;-81
2021/03/06 07:29:14;;;;;;;18.60;9.83;;;0.60;99.90;;;;;;4858136;28;20641;-82
2021/03/06 07:31:38;;;;;;;14.63;10.97;;;0.40;99.90;;;;;;4858527;28;20680;-83
2021/03/06 07:34:01;;;;;;;13.83;9.23;;;0.60;1.00;;;;;;4853006;28;21295;-77
2021/03/06 07:36:26;;;;;;;12.60;9.27;;;1.00;1.00;;;;;;4850016;28;20616;-83
2021/03/06 07:38:49;;;;;;;14.40;9.90;;;1.20;99.90;;;;;;4840770;28;21032;-82
2021/03/06 07:41:12;;;;;;;13.33;10.00;;;1.20;99.90;;;;;;4845500;28;20639;-82
2021/03/06 07:43:37;;;;;;;12.10;9.20;;;1.30;99.90;;;;;;4840436;28;21000;-85
2021/03/06 07:46:00;;;;;;;13.40;9.37;;;1.70;99.90;;;;;;4840455;28;20194;-79
2021/03/06 07:48:26;;;;;;;15.37;9.17;;;1.10;1.00;;;;;;4841477;28;20242;-85
2021/03/06 07:50:50;;;;;;;12.07;8.53;;;1.10;1.00;;;;;;4839678;28;21114;-79
2021/03/06 07:53:15;;;;;;;14.07;8.90;;;1.10;1.00;;;;;;4840790;28;20612;-80
2021/03/06 07:55:37;;;;;;;13.17;8.27;;;1.20;1.00;;;;;;4855594;28;20614;-85
2021/03/06 07:58:01;;;;;;;12.97;8.17;;;1.40;1.00;;;;;;4859284;28;20669;-75
2021/03/06 08:00:41;;;;;;;11.37;7.10;;;1.80;1.00;;;;;;4858569;28;20198;-75
2021/03/06 08:03:36;;;;;;;10.67;6.93;;;2.00;99.90;;;;;;4854986;28;20708;-77
2021/03/06 08:06:00;;;;;;;10.30;7.67;;;2.80;99.90;;;;;;4839747;28;20179;-83
2021/03/06 08:08:57;;;;;;;11.83;7.90;;;3.70;1.00;;;;;;4839601;28;20186;-81
2021/03/06 08:11:21;;;;;;;11.53;7.30;;;4.00;1.00;;;;;;4839729;28;20224;-83
2021/03/06 08:13:47;;;;;;;11.07;7.60;;;4.00;1.00;;;;;;4838922;28;20195;-82
2021/03/06 08:16:34;;;;;;;12.00;7.70;;;4.50;1.00;;;;;;4839554;28;20245;-84
2021/03/06 08:18:58;;;;;;;10.90;7.40;;;5.10;1.00;;;;;;4841898;28;20194;-81
2021/03/06 08:21:27;;;;;;;11.47;7.30;;;5.50;1.00;;;;;;4859002;28;20816;-73
2021/03/06 08:23:50;;;;;;;9.03;6.63;;;5.50;1.00;;;;;;4851469;28;20640;-81
2021/03/06 08:26:29;;;;;;;9.20;5.97;;;5.40;1.00;;;;;;4839070;28;20186;-81
2021/03/06 08:28:53;;;;;;;8.03;6.17;;;5.10;1.00;;;;;;4840203;28;20257;-81
2021/03/06 08:31:38;;;;;;;8.90;6.60;;;4.90;1.00;;;;;;4858846;28;20228;-80
2021/03/06 08:34:27;;;;;;;9.00;6.17;;;4.70;1.00;;;;;;4857094;28;20222;-77
2021/03/06 08:36:50;;;;;;;10.20;6.13;;;4.60;1.00;;;;;;4856682;28;20276;-79
2021/03/06 08:39:12;;;;;;;10.00;6.50;;;4.60;1.00;;;;;;4839636;28;20573;-78
2021/03/06 08:41:34;;;;;;;10.27;6.87;;;4.40;1.00;;;;;;4854001;28;20182;-83
2021/03/06 08:43:57;;;;;;;9.23;6.60;;;4.20;1.00;;;;;;4855783;28;20221;-80
2021/03/06 08:46:19;;;;;;;10.77;6.87;;;4.00;1.00;;;;;;4856165;28;20595;-81
2021/03/06 08:48:44;;;;;;;7.73;6.23;;;4.00;1.00;;;;;;4857396;28;20197;-80
2021/03/06 08:51:08;;;;;;;9.83;6.37;;;4.00;1.00;;;;;;4854248;28;20253;-81
2021/03/06 08:53:32;;;;;;;9.23;6.70;;;4.00;1.00;;;;;;4858542;28;20687;-85
2021/03/06 08:55:55;;;;;;;10.03;6.87;;;4.00;1.00;;;;;;4843535;28;20237;-82
2021/03/06 08:58:18;;;;;;;9.10;6.20;;;4.00;1.00;;;;;;4839208;28;20187;-78
2021/03/06 09:00:42;;;;;;;8.27;6.00;;;4.00;1.00;;;;;;4845096;28;20194;-74
2021/03/06 09:03:14;;;;;;;9.20;5.97;;;4.00;1.00;;;;;;4856028;28;20623;-78
2021/03/06 09:05:36;;;;;;;8.30;5.63;;;4.00;1.00;;;;;;4846227;28;20253;-80
2021/03/06 09:07:58;;;;;;;6.43;5.27;;;4.20;1.00;;;;;;4853957;28;20202;-78
2021/03/06 09:10:29;;;;;;;8.57;6.23;;;4.30;1.00;;;;;;4849408;28;20194;-79
2021/03/06 09:12:52;;;;;;;10.37;6.33;;;4.70;1.00;;;;;;4858402;28;20721;-81
2021/03/06 09:15:31;;;;;;;8.10;5.43;;;5.10;1.00;;;;;;4843109;28;20601;-82
2021/03/06 09:17:54;;;;;;;8.00;5.37;;;5.60;1.00;;;;;;4837042;28;20680;-81
2021/03/06 09:20:16;;;;;;;7.20;4.97;;;5.80;1.00;;;;;;4855376;28;20252;-82
2021/03/06 09:22:42;;;;;;;7.70;5.00;;;6.30;1.00;;;;;;4858162;28;20236;-82
2021/03/06 09:25:06;;;;;;;7.63;5.97;;;6.90;1.00;;;;;;4856499;28;20608;-82
2021/03/06 09:27:42;;;;;;;7.00;4.93;;;7.70;1.00;;;;;;4851108;28;20189;-82
2021/03/06 09:30:19;;;;;;;5.90;4.27;;;8.40;1.00;;;;;;4837488;28;20187;-82
2021/03/06 09:32:44;;;;;;;4.93;4.27;;;8.70;1.00;;;;;;4837876;28;20321;-78
2021/03/06 09:35:11;;;;;;;5.10;3.70;;;8.60;1.00;;;;;;4836231;28;20241;-82
2021/03/06 09:37:34;;;;;;;5.43;4.47;;;8.50;1.00;;;;;;4836959;28;20673;-80
2021/03/06 09:39:56;;;;;;;5.13;4.50;;;8.20;1.00;;;;;;4839515;28;20244;-80
2021/03/06 09:42:18;;;;;;;4.80;4.10;;;8.00;1.00;;;;;;4856459;28;20236;-82
2021/03/06 09:44:48;;;;;;;5.80;4.40;;;8.10;1.00;;;;;;4851464;28;20211;-81
2021/03/06 09:47:11;;;;;;;5.03;3.77;;;8.70;1.00;;;;;;4840606;28;20707;-82
2021/03/06 09:49:34;;;;;;;4.30;3.90;;;9.40;1.00;;;;;;4852581;28;20220;-84
2021/03/06 09:51:57;;;;;;;3.50;3.20;;;10.00;1.00;;;;;;4837483;28;20199;-79
2021/03/06 09:54:21;;;;;;;4.17;3.63;;;10.60;1.00;;;;;;4835745;28;21059;-80
2021/03/06 09:56:47;;;;;;;4.50;3.47;;;10.80;99.90;;;;;;4842412;28;20239;-80
2021/03/06 09:59:09;;;;;;;2.97;2.67;;;10.60;99.90;;;;;;4852456;28;20193;-78
2021/03/06 10:01:34;;;;;;;2.97;2.77;;;10.70;99.90;;;;;;4839463;28;20182;-85
2021/03/06 10:03:57;;;;;;;3.27;2.97;;;11.00;99.90;;;;;;4844459;28;20218;-80
2021/03/06 10:06:21;;;;;;;3.17;2.90;;;11.80;99.90;;;;;;4825843;28;20195;-79
2021/03/06 10:08:47;;;;;;;2.37;2.17;;;12.50;99.90;;;;;;4843523;28;20211;-78
2021/03/06 10:11:09;;;;;;;2.17;2.00;;;13.70;99.90;;;;;;4847893;28;20236;-79
2021/03/06 10:13:33;;;;;;;1.53;1.43;;;15.40;99.90;;;;;;4841128;28;20186;-78
2021/03/06 10:15:57;;;;;;;1.10;1.00;;;17.60;99.90;;;;;;4840308;28;20685;-79
2021/03/06 10:18:21;;;;;;;0.93;0.93;;;18.90;99.90;;;;;;4853577;28;20193;-81
2021/03/06 10:20:43;;;;;;;0.50;0.50;;;19.60;99.90;;;;;;4853805;28;20640;-82
2021/03/06 10:23:06;;;;;;;0.50;0.50;;;19.60;99.90;;;;;;4855212;28;20593;-79
2021/03/06 10:25:28;;;;;;;0.40;0.40;;;19.50;99.90;;;;;;4855482;28;20213;-80
2021/03/06 10:27:51;;;;;;;0.50;0.50;;;18.70;99.90;;;;;;4851813;28;20280;-77
2021/03/06 10:30:15;;;;;;;0.40;0.40;;;17.90;99.90;;;;;;4845213;28;20252;-79
2021/03/06 10:32:39;;;;;;;0.40;0.40;;;17.70;99.90;;;;;;4851500;28;20190;-78
2021/03/06 10:35:02;;;;;;;0.33;0.33;;;18.50;99.90;;;;;;4834508;28;20281;-76
2021/03/06 10:37:25;;;;;;;0.20;0.20;;;19.50;99.90;;;;;;4836916;28;20187;-78
2021/03/06 10:39:56;;;;;;;0.40;0.40;;;19.10;99.90;;;;;;4836077;28;20739;-77
2021/03/06 10:42:18;;;;;;;0.40;0.40;;;18.90;99.90;;;;;;4836569;28;20190;-79
2021/03/06 10:44:41;;;;;;;0.30;0.30;;;19.90;99.90;;;;;;4835639;28;20272;-78
2021/03/06 10:47:03;;;;;;;0.30;0.30;;;20.80;99.90;;;;;;4835522;28;20238;-80
2021/03/06 10:49:36;;;;;;;0.20;0.20;;;22.00;99.90;;;;;;4836190;28;20190;-80
2021/03/06 10:51:59;;;;;;;0.30;0.30;;;21.30;99.90;;;;;;4836841;28;20241;-78
2021/03/06 10:54:25;;;;;;;0.20;0.20;;;19.50;99.90;;;;;;4835846;28;20225;-78
2021/03/06 10:56:47;;;;;;;0.30;0.30;;;17.60;99.90;;;;;;4835930;28;20191;-80
2021/03/06 10:59:09;;;;;;;0.30;0.30;;;15.90;99.90;;;;;;4835557;28;20248;-78
2021/03/06 11:01:33;;;;;;;0.50;0.50;;;14.40;99.90;;;;;;4832149;28;20769;-77
2021/03/06 11:03:55;;;;;;;0.70;0.70;;;13.20;99.90;;;;;;4836570;28;20191;-78
2021/03/06 11:06:19;;;;;;;0.40;0.40;;;12.80;99.90;;;;;;4834618;28;20726;-76
2021/03/06 11:08:43;;;;;;;0.73;0.73;;;13.40;99.90;;;;;;4835581;28;20192;-77
2021/03/06 11:11:07;;;;;;;0.70;0.70;;;13.50;99.90;;;;;;4835659;28;20186;-77
2021/03/06 11:13:39;;;;;;;0.73;0.73;;;13.20;99.90;;;;;;4835180;28;20226;-80
2021/03/06 11:16:01;;;;;;;0.90;0.83;;;12.50;99.90;;;;;;4834844;28;20198;-79
2021/03/06 11:18:23;;;;;;;0.60;0.60;;;12.50;99.90;;;;;;4836191;28;20198;-75
2021/03/06 11:20:46;;;;;;;0.70;0.70;;;12.30;99.90;;;;;;4835611;28;20731;-76
2021/03/06 11:23:08;;;;;;;0.77;0.77;;;11.90;99.90;;;;;;4836334;28;20186;-78
2021/03/06 11:25:32;;;;;;;0.67;0.67;;;11.40;99.90;;;;;;4835293;28;20218;-77
2021/03/06 11:27:57;;;;;;;0.70;0.70;;;11.30;99.90;;;;;;4834540;28;20245;-76
2021/03/06 11:30:21;;;;;;;0.90;0.90;;;12.50;99.90;;;;;;4835790;28;20237;-77
2021/03/06 11:32:45;;;;;;;0.50;0.50;;;14.30;99.90;;;;;;4836384;28;20190;-75
2021/03/06 11:35:08;;;;;;;0.63;0.63;;;14.80;99.90;;;;;;4860661;28;20193;-76
2021/03/06 11:37:34;;;;;;;0.53;0.53;;;14.60;99.90;;;;;;4864846;28;20194;-79
2021/03/06 11:39:56;;;;;;;0.70;0.70;;;14.70;99.90;;;;;;4857289;28;20190;-79
2021/03/06 11:42:19;;;;;;;0.37;0.37;;;16.30;99.90;;;;;;4868145;28;20737;-76
2021/03/06 11:44:41;;;;;;;0.50;0.50;;;16.60;99.90;;;;;;4857913;28;20209;-76
2021/03/06 11:47:03;;;;;;;0.33;0.33;;;16.10;99.90;;;;;;4858089;28;20193;-76
2021/03/06 11:49:26;;;;;;;0.47;0.47;;;15.30;99.90;;;;;;4861768;28;20582;-77
2021/03/06 11:51:48;;;;;;;0.63;0.63;;;14.30;99.90;;;;;;4877717;28;20202;-75
2021/03/06 11:54:10;;;;;;;0.77;0.77;;;13.50;99.90;;;;;;4875212;28;20193;-82
2021/03/06 11:56:32;;;;;;;0.83;0.83;;;12.80;99.90;;;;;;4858078;28;20182;-75
2021/03/06 11:58:55;;;;;;;0.50;0.50;;;12.20;99.90;;;;;;4868710;28;20576;-77
2021/03/06 12:01:17;;;;;;;0.80;0.80;;;11.60;99.90;;;;;;4871721;28;20194;-75
2021/03/06 12:03:39;;;;;;;0.87;0.87;;;11.00;99.90;;;;;;4845274;28;20284;-78
2021/03/06 12:06:01;;;;;;;1.13;1.13;;;10.60;99.90;;;;;;4848169;28;20210;-76
2021/03/06 12:08:24;;;;;;;1.50;1.40;;;10.20;99.90;;;;;;4840189;28;20664;-76
2021/03/06 12:10:46;;;;;;;1.83;1.73;;;9.90;99.90;;;;;;4849207;28;20216;-75
2021/03/06 12:13:08;;;;;;;1.57;1.47;;;9.70;99.90;;;;;;4843172;28;20208;-77
2021/03/06 12:15:31;;;;;;;2.30;0.90;;;9.80;99.90;;;;;;4857314;28;20224;-76
2021/03/06 12:17:54;;;;;;;1.40;1.27;;;10.00;99.90;;;;;;4858409;28;20236;-77
2021/03/06 12:20:17;;;;;;;1.10;1.10;;;10.40;99.90;;;;;;4857350;28;20667;-76
2021/03/06 12:22:39;;;;;;;1.33;1.23;;;11.40;99.90;;;;;;4847830;28;20233;-76
2021/03/06 12:25:02;;;;;;;1.07;1.07;;;12.60;99.90;;;;;;4837613;28;20210;-79